Time;durP1;ratioP1;P1;durP2;ratioP2;P2;SDS_P1;SDS_P2;PMS_P1;PMS_P2;Temp;Humidity;BMP_temperature;BMP_pressure;BME280_temperature;BME280_humidity;BME280_pressure;Samples;Min_cycle;Max_cycle;Signal;HPM_P1;HPM_P2
2021/11/08 00:01:40;;;;;;;;;24.75;23.25;;;;;;;;5055716;28;45602;-72
2021/11/08 00:04:06;;;;;;;;;34.50;29.75;;;;;;;;5053530;28;45449;-73
2021/11/08 00:06:31;;;;;;;;;33.25;31.00;;;;;;;;5053548;28;45399;-72
2021/11/08 00:08:56;;;;;;;;;33.75;29.75;;;;;;;;5053411;28;45446;-73
2021/11/08 00:11:23;;;;;;;;;32.00;27.50;;;;;;;;5053489;28;45245;-73
2021/11/08 00:13:48;;;;;;;;;34.00;29.25;;;;;;;;5054818;28;45371;-73
2021/11/08 00:21:20;;;;;;;;;35.25;30.25;;;;;;;;5053376;28;45514;-73
2021/11/08 00:23:45;;;;;;;;;28.00;26.75;;;;;;;;5053271;28;46333;-72
2021/11/08 00:26:11;;;;;;;;;33.25;28.25;;;;;;;;5052488;28;45506;-72
2021/11/08 00:28:36;;;;;;;;;30.25;26.50;;;;;;;;5055451;28;45244;-72
2021/11/08 00:31:01;;;;;;;;;33.50;31.50;;;;;;;;5052977;28;45452;-72
2021/11/08 00:33:27;;;;;;;;;31.75;29.25;;;;;;;;5053134;28;46130;-72
2021/11/08 00:35:54;;;;;;;;;26.50;25.50;;;;;;;;5051717;28;45461;-71
2021/11/08 00:38:20;;;;;;;;;31.75;31.25;;;;;;;;5052101;28;45376;-72
2021/11/08 00:40:45;;;;;;;;;27.50;27.25;;;;;;;;5036744;28;45530;-71
2021/11/08 00:43:12;;;;;;;;;33.00;30.00;;;;;;;;5053278;28;46126;-72
2021/11/08 00:45:38;;;;;;;;;29.00;21.75;;;;;;;;5052903;28;45408;-72
2021/11/08 00:48:04;;;;;;;;;33.25;29.25;;;;;;;;5053167;28;45467;-72
2021/11/08 00:50:29;;;;;;;;;30.50;28.25;;;;;;;;5053046;28;46463;-73
2021/11/08 00:52:55;;;;;;;;;35.00;27.25;;;;;;;;5035668;28;47257;-71
2021/11/08 00:55:22;;;;;;;;;27.50;23.25;;;;;;;;5054094;28;45331;-71
2021/11/08 00:57:49;;;;;;;;;32.00;29.25;;;;;;;;5053241;28;45446;-71
2021/11/08 01:00:15;;;;;;;;;30.75;24.50;;;;;;;;5052940;28;45498;-73
2021/11/08 01:02:41;;;;;;;;;27.00;23.50;;;;;;;;5052942;28;46262;-73
2021/11/08 01:05:08;;;;;;;;;25.25;21.25;;;;;;;;5052955;28;45558;-71
2021/11/08 01:07:34;;;;;;;;;25.50;24.25;;;;;;;;5054966;28;45431;-71
2021/11/08 01:09:59;;;;;;;;;26.50;22.00;;;;;;;;5052536;28;45451;-72
2021/11/08 01:12:25;;;;;;;;;27.50;24.75;;;;;;;;5052557;28;47114;-73
2021/11/08 01:14:51;;;;;;;;;28.75;27.50;;;;;;;;5050893;28;45427;-72
2021/11/08 01:17:16;;;;;;;;;32.75;25.50;;;;;;;;5051374;28;45275;-72
2021/11/08 01:19:42;;;;;;;;;26.50;24.25;;;;;;;;5054736;28;45459;-72
2021/11/08 01:22:16;;;;;;;;;29.75;23.00;;;;;;;;5052431;28;45479;-71
2021/11/08 01:24:44;;;;;;;;;32.25;28.00;;;;;;;;5051881;28;45378;-72
2021/11/08 01:27:09;;;;;;;;;26.75;23.25;;;;;;;;5052528;28;45467;-70
2021/11/08 01:29:36;;;;;;;;;30.75;22.75;;;;;;;;5052404;28;45527;-71
2021/11/08 01:32:05;;;;;;;;;27.50;24.75;;;;;;;;5052339;28;46375;-73
2021/11/08 01:34:30;;;;;;;;;29.50;26.50;;;;;;;;5054720;28;45396;-72
2021/11/08 01:36:59;;;;;;;;;23.75;21.25;;;;;;;;5052494;28;45333;-72
2021/11/08 01:39:31;;;;;;;;;27.50;23.25;;;;;;;;5055267;28;45582;-73
2021/11/08 01:41:57;;;;;;;;;22.50;20.50;;;;;;;;5055848;28;46289;-73
2021/11/08 01:44:22;;;;;;;;;19.25;19.25;;;;;;;;5055657;28;45427;-73
2021/11/08 01:46:47;;;;;;;;;27.25;19.00;;;;;;;;5057376;28;45221;-73
2021/11/08 01:49:13;;;;;;;;;23.50;19.25;;;;;;;;5038142;28;45394;-73
2021/11/08 01:51:38;;;;;;;;;17.75;16.00;;;;;;;;5035729;28;47441;-73
2021/11/08 01:54:05;;;;;;;;;24.50;20.25;;;;;;;;5053540;28;45449;-73
2021/11/08 01:56:31;;;;;;;;;21.50;18.00;;;;;;;;5054322;28;45431;-73
2021/11/08 01:58:56;;;;;;;;;24.00;22.50;;;;;;;;5055778;28;45514;-73
2021/11/08 02:01:21;;;;;;;;;20.00;17.50;;;;;;;;5057113;28;46072;-71
2021/11/08 02:03:47;;;;;;;;;28.00;23.50;;;;;;;;5055558;28;45435;-71
2021/11/08 02:06:13;;;;;;;;;23.25;20.00;;;;;;;;5055664;28;45383;-72
2021/11/08 02:08:39;;;;;;;;;21.00;20.25;;;;;;;;5055314;28;45279;-72
2021/11/08 02:11:06;;;;;;;;;21.50;19.25;;;;;;;;5055218;28;45485;-72
2021/11/08 02:13:31;;;;;;;;;25.25;21.25;;;;;;;;5057389;28;45317;-72
2021/11/08 02:15:57;;;;;;;;;26.25;20.75;;;;;;;;5055382;28;45244;-71
2021/11/08 02:18:23;;;;;;;;;28.75;23.50;;;;;;;;5054827;28;45548;-73
2021/11/08 02:20:50;;;;;;;;;20.75;17.75;;;;;;;;5054985;28;46226;-73
2021/11/08 02:23:17;;;;;;;;;23.25;20.25;;;;;;;;5054854;28;47888;-72
2021/11/08 02:25:43;;;;;;;;;21.50;20.75;;;;;;;;5057415;28;45502;-72
2021/11/08 02:28:10;;;;;;;;;22.75;18.25;;;;;;;;5055663;28;45410;-73
2021/11/08 02:30:37;;;;;;;;;23.25;17.50;;;;;;;;5054829;28;46888;-73
2021/11/08 02:33:03;;;;;;;;;23.00;18.75;;;;;;;;5053450;28;45249;-73
2021/11/08 02:35:29;;;;;;;;;22.75;20.50;;;;;;;;5053746;28;45289;-73
2021/11/08 02:37:55;;;;;;;;;27.00;22.00;;;;;;;;5055620;28;45577;-72
2021/11/08 02:40:25;;;;;;;;;26.75;21.50;;;;;;;;5056418;28;45459;-72
2021/11/08 02:42:53;;;;;;;;;25.00;20.25;;;;;;;;5055684;28;45283;-72
2021/11/08 02:45:20;;;;;;;;;23.75;18.00;;;;;;;;5055024;28;45356;-72
2021/11/08 02:47:47;;;;;;;;;15.00;15.00;;;;;;;;5055032;28;45609;-73
2021/11/08 02:50:14;;;;;;;;;17.75;15.50;;;;;;;;5038622;28;45936;-73
2021/11/08 02:52:39;;;;;;;;;20.75;18.75;;;;;;;;5052242;28;45463;-71
2021/11/08 02:55:05;;;;;;;;;20.25;20.00;;;;;;;;5054817;28;45334;-72
2021/11/08 02:57:30;;;;;;;;;18.25;16.00;;;;;;;;5054861;28;45330;-71
2021/11/08 03:00:01;;;;;;;;;20.25;18.00;;;;;;;;5054403;28;45866;-72
2021/11/08 03:02:26;;;;;;;;;23.25;19.50;;;;;;;;5054812;28;45531;-71
2021/11/08 03:04:53;;;;;;;;;26.50;22.00;;;;;;;;5055608;28;45327;-71
2021/11/08 03:07:19;;;;;;;;;24.75;20.25;;;;;;;;5056177;28;45510;-71
2021/11/08 03:09:48;;;;;;;;;21.25;19.00;;;;;;;;5054463;28;47223;-71
2021/11/08 03:12:16;;;;;;;;;22.75;19.50;;;;;;;;5052835;28;45540;-72
2021/11/08 03:14:46;;;;;;;;;17.00;16.25;;;;;;;;5053097;28;45317;-72
2021/11/08 03:17:14;;;;;;;;;18.50;17.50;;;;;;;;5036905;28;45488;-72
2021/11/08 03:19:42;;;;;;;;;23.25;18.00;;;;;;;;5055959;28;47116;-73
2021/11/08 03:22:11;;;;;;;;;22.50;18.25;;;;;;;;5054198;28;45444;-72
2021/11/08 03:24:42;;;;;;;;;20.50;14.00;;;;;;;;5054324;28;45297;-72
2021/11/08 03:27:25;;;;;;;;;17.50;13.50;;;;;;;;5053992;28;45376;-72
2021/11/08 03:29:51;;;;;;;;;21.00;14.50;;;;;;;;5054057;28;46210;-72
2021/11/08 03:32:17;;;;;;;;;17.25;14.00;;;;;;;;5054101;28;45589;-72
2021/11/08 03:37:21;;;;;;;;;17.50;15.25;;;;;;;;5055896;28;45507;-72
2021/11/08 03:39:49;;;;;;;;;23.00;17.50;;;;;;;;5053450;28;46926;-73
2021/11/08 03:42:14;;;;;;;;;18.50;14.50;;;;;;;;5053571;28;45408;-72
2021/11/08 03:44:40;;;;;;;;;24.75;16.50;;;;;;;;5053771;28;45541;-72
2021/11/08 03:47:05;;;;;;;;;24.75;21.75;;;;;;;;5053892;28;45455;-71
2021/11/08 03:49:31;;;;;;;;;19.00;17.50;;;;;;;;5055316;28;47152;-72
2021/11/08 03:51:56;;;;;;;;;19.50;16.25;;;;;;;;5052088;28;45600;-72
2021/11/08 03:54:21;;;;;;;;;14.25;14.25;;;;;;;;5051962;28;45417;-72
2021/11/08 03:56:47;;;;;;;;;17.00;15.75;;;;;;;;5053471;28;45393;-71
2021/11/08 03:59:12;;;;;;;;;18.25;15.50;;;;;;;;5053586;28;46089;-71
2021/11/08 04:01:37;;;;;;;;;18.25;15.75;;;;;;;;5055138;28;45592;-72
2021/11/08 04:04:03;;;;;;;;;17.25;13.50;;;;;;;;5053602;28;45419;-72
2021/11/08 04:06:29;;;;;;;;;24.50;17.50;;;;;;;;5053599;28;45376;-72
2021/11/08 04:08:54;;;;;;;;;19.00;18.00;;;;;;;;5053429;28;46893;-72
2021/11/08 04:11:19;;;;;;;;;17.00;14.75;;;;;;;;5053848;28;45365;-72
2021/11/08 04:13:45;;;;;;;;;21.00;19.75;;;;;;;;5055542;28;45273;-71
2021/11/08 04:16:14;;;;;;;;;24.75;19.50;;;;;;;;5054263;28;45664;-72
2021/11/08 04:18:45;;;;;;;;;19.25;18.00;;;;;;;;5052843;28;45471;-72
2021/11/08 04:21:11;;;;;;;;;20.75;17.75;;;;;;;;5052926;28;45470;-72
2021/11/08 04:23:36;;;;;;;;;18.25;17.75;;;;;;;;5053616;28;45400;-72
2021/11/08 04:26:03;;;;;;;;;21.50;18.50;;;;;;;;5053582;28;45477;-73
2021/11/08 04:28:28;;;;;;;;;22.50;20.00;;;;;;;;5055000;28;46066;-72
2021/11/08 04:30:53;;;;;;;;;20.25;18.25;;;;;;;;5051354;28;45255;-72
2021/11/08 04:35:53;;;;;;;;;23.75;20.75;;;;;;;;5052653;28;45570;-72
2021/11/08 04:38:34;;;;;;;;;19.75;16.50;;;;;;;;5037715;28;47142;-72
2021/11/08 04:48:59;;;;;;;;;19.50;17.25;;;;;;;;5052161;28;45400;-72
2021/11/08 04:54:16;;;;;;;;;15.25;15.00;;;;;;;;5052582;28;45487;-72
2021/11/08 05:24:17;;;;;;;;;27.00;24.50;;;;;;;;5055441;28;45347;-73
2021/11/08 05:31:54;;;;;;;;;23.50;20.75;;;;;;;;5055786;28;45421;-73
2021/11/08 05:34:20;;;;;;;;;27.75;24.25;;;;;;;;5056482;28;45455;-73
2021/11/08 05:36:45;;;;;;;;;21.75;20.00;;;;;;;;5055223;28;45426;-73
2021/11/08 05:39:11;;;;;;;;;35.50;27.50;;;;;;;;5055205;28;45702;-72
2021/11/08 05:41:36;;;;;;;;;34.00;28.50;;;;;;;;5036418;28;46130;-72
2021/11/08 05:44:02;;;;;;;;;29.25;27.50;;;;;;;;5055226;28;45431;-70
2021/11/08 05:46:28;;;;;;;;;24.25;21.00;;;;;;;;5057058;28;45333;-71
2021/11/08 05:48:53;;;;;;;;;37.25;27.75;;;;;;;;5053476;28;45386;-73
2021/11/08 05:51:18;;;;;;;;;22.25;21.25;;;;;;;;5018819;28;46589;-73
2021/11/08 05:53:44;;;;;;;;;39.25;33.00;;;;;;;;5025135;28;45404;-72
2021/11/08 05:56:27;;;;;;;;;31.75;27.50;;;;;;;;5054563;28;45342;-73
2021/11/08 05:59:13;;;;;;;;;22.75;20.00;;;;;;;;5052972;28;45365;-72
2021/11/08 06:50:59;;;;;;;;;24.00;23.00;;;;;;;;4971723;28;45386;-73
2021/11/08 06:53:24;;;;;;;;;25.00;22.25;;;;;;;;4958848;28;45421;-73
2021/11/08 06:55:52;;;;;;;;;21.50;20.50;;;;;;;;4957460;28;46257;-74
2021/11/08 06:58:20;;;;;;;;;28.00;23.25;;;;;;;;4972326;28;45492;-72
2021/11/08 07:00:46;;;;;;;;;26.50;22.00;;;;;;;;4964879;28;45477;-72
2021/11/08 07:03:12;;;;;;;;;21.75;20.00;;;;;;;;4962266;28;45403;-72
2021/11/08 07:05:37;;;;;;;;;23.00;18.75;;;;;;;;4960194;28;45559;-72
2021/11/08 07:08:02;;;;;;;;;29.75;23.25;;;;;;;;4972707;28;45484;-72
2021/11/08 07:10:28;;;;;;;;;26.25;22.00;;;;;;;;4973247;28;45405;-71
2021/11/08 07:12:53;;;;;;;;;24.00;20.00;;;;;;;;4963226;28;45412;-71
2021/11/08 07:15:19;;;;;;;;;28.25;20.75;;;;;;;;4961424;28;45235;-70
2021/11/08 07:17:45;;;;;;;;;24.75;23.50;;;;;;;;4960821;28;45420;-72
2021/11/08 07:20:10;;;;;;;;;25.75;24.00;;;;;;;;4955713;28;45365;-71
2021/11/08 07:22:36;;;;;;;;;35.00;31.00;;;;;;;;4957924;28;45339;-72
2021/11/08 07:25:01;;;;;;;;;29.25;26.25;;;;;;;;5000932;28;45498;-71
2021/11/08 07:27:26;;;;;;;;;23.25;22.00;;;;;;;;5045641;28;45281;-72
2021/11/08 07:29:52;;;;;;;;;26.25;22.75;;;;;;;;5049376;28;45541;-73
2021/11/08 07:32:17;;;;;;;;;28.75;24.00;;;;;;;;5048372;28;45814;-71
2021/11/08 07:34:42;;;;;;;;;29.25;22.75;;;;;;;;5052556;28;45411;-73
2021/11/08 07:37:08;;;;;;;;;27.00;22.50;;;;;;;;5050436;28;45520;-72
2021/11/08 07:39:33;;;;;;;;;28.50;26.25;;;;;;;;5051675;28;45348;-72
2021/11/08 07:41:58;;;;;;;;;27.75;22.50;;;;;;;;5050727;28;45311;-71
2021/11/08 07:44:23;;;;;;;;;24.25;22.25;;;;;;;;5049240;28;45982;-72
2021/11/08 07:46:49;;;;;;;;;28.50;25.50;;;;;;;;5051720;28;45273;-73
2021/11/08 07:49:14;;;;;;;;;35.00;30.50;;;;;;;;5049124;28;45515;-73
2021/11/08 07:51:40;;;;;;;;;34.50;32.25;;;;;;;;5051159;28;47008;-72
2021/11/08 07:54:05;;;;;;;;;30.25;27.50;;;;;;;;5051500;28;45506;-73
2021/11/08 07:56:31;;;;;;;;;33.00;22.50;;;;;;;;5050658;28;45280;-72
2021/11/08 07:58:56;;;;;;;;;36.75;28.50;;;;;;;;5051200;28;45245;-73
2021/11/08 08:01:21;;;;;;;;;32.00;28.75;;;;;;;;5051834;28;45268;-74
2021/11/08 08:03:47;;;;;;;;;31.50;28.50;;;;;;;;5049526;28;46087;-75
2021/11/08 08:06:13;;;;;;;;;29.00;28.00;;;;;;;;5047874;28;45471;-74
2021/11/08 08:08:38;;;;;;;;;30.75;28.50;;;;;;;;5051191;28;45413;-75
2021/11/08 08:11:05;;;;;;;;;30.75;26.50;;;;;;;;5051320;28;45266;-73
2021/11/08 08:13:30;;;;;;;;;28.25;25.25;;;;;;;;5053333;28;46380;-74
2021/11/08 08:15:59;;;;;;;;;30.50;25.00;;;;;;;;5050769;28;45390;-74
2021/11/08 08:18:34;;;;;;;;;30.00;23.50;;;;;;;;5050885;28;45609;-74
2021/11/08 08:20:59;;;;;;;;;27.00;26.00;;;;;;;;5050377;28;45242;-74
2021/11/08 08:23:25;;;;;;;;;25.25;21.25;;;;;;;;5048970;28;47073;-73
2021/11/08 08:25:50;;;;;;;;;25.25;22.75;;;;;;;;5051839;28;45517;-73
2021/11/08 08:28:16;;;;;;;;;21.50;21.50;;;;;;;;5049545;28;45204;-74
2021/11/08 08:30:42;;;;;;;;;24.25;22.25;;;;;;;;5050279;28;45581;-73
2021/11/08 08:33:07;;;;;;;;;27.00;25.00;;;;;;;;5050306;28;46674;-74
2021/11/08 08:35:39;;;;;;;;;27.50;20.50;;;;;;;;5050160;28;45431;-73
2021/11/08 08:38:04;;;;;;;;;20.25;20.25;;;;;;;;5050721;28;45479;-74
2021/11/08 08:40:30;;;;;;;;;32.00;26.50;;;;;;;;5052621;28;45618;-74
2021/11/08 08:42:55;;;;;;;;;40.75;31.00;;;;;;;;5050572;28;45337;-73
2021/11/08 08:45:20;;;;;;;;;26.00;24.00;;;;;;;;5050715;28;45458;-72
2021/11/08 08:47:45;;;;;;;;;31.75;27.75;;;;;;;;5050155;28;45415;-73
2021/11/08 08:50:11;;;;;;;;;27.50;25.50;;;;;;;;5050415;28;45434;-74
2021/11/08 08:52:36;;;;;;;;;26.50;22.25;;;;;;;;5052777;28;46024;-74
2021/11/08 08:55:01;;;;;;;;;27.00;22.00;;;;;;;;5050186;28;45356;-74
2021/11/08 08:57:26;;;;;;;;;27.00;23.00;;;;;;;;5048467;28;47623;-73
2021/11/08 08:59:52;;;;;;;;;20.50;19.00;;;;;;;;5050500;28;45467;-74
2021/11/08 09:02:17;;;;;;;;;28.25;25.00;;;;;;;;5049382;28;45205;-74
2021/11/08 09:04:42;;;;;;;;;22.00;21.75;;;;;;;;5052909;28;45440;-73
2021/11/08 09:07:08;;;;;;;;;24.00;21.75;;;;;;;;5049544;28;45439;-73
2021/11/08 09:09:37;;;;;;;;;22.75;19.25;;;;;;;;5050037;28;45491;-73
2021/11/08 09:12:03;;;;;;;;;23.75;20.50;;;;;;;;5050809;28;45316;-74
2021/11/08 09:14:29;;;;;;;;;27.75;22.25;;;;;;;;5050966;28;45289;-73
2021/11/08 09:16:54;;;;;;;;;28.75;26.00;;;;;;;;5052158;28;45373;-73
2021/11/08 09:19:20;;;;;;;;;29.00;25.25;;;;;;;;5052158;28;45373;-73
2021/11/08 09:21:45;;;;;;;;;25.50;22.00;;;;;;;;5051268;28;46143;-72
2021/11/08 09:24:10;;;;;;;;;26.00;25.00;;;;;;;;5050659;28;45219;-74
2021/11/08 09:26:36;;;;;;;;;23.25;22.25;;;;;;;;5050574;28;45387;-72
2021/11/08 09:29:01;;;;;;;;;32.75;25.00;;;;;;;;5050697;28;45378;-73
2021/11/08 09:31:27;;;;;;;;;31.75;23.75;;;;;;;;5034384;28;47107;-74
2021/11/08 09:33:57;;;;;;;;;25.25;22.25;;;;;;;;5050764;28;45567;-73
2021/11/08 09:36:24;;;;;;;;;30.75;28.25;;;;;;;;5050210;28;45403;-73
2021/11/08 09:38:56;;;;;;;;;26.50;25.00;;;;;;;;5050153;28;45521;-73
2021/11/08 09:41:25;;;;;;;;;28.25;28.25;;;;;;;;5049302;28;47066;-74
2021/11/08 09:43:51;;;;;;;;;20.75;20.25;;;;;;;;5051791;28;45350;-74
2021/11/08 09:46:16;;;;;;;;;25.25;21.00;;;;;;;;5051033;28;45351;-73
2021/11/08 09:48:42;;;;;;;;;28.00;23.25;;;;;;;;5049271;28;45383;-74
2021/11/08 09:51:08;;;;;;;;;24.75;22.25;;;;;;;;5049093;28;47119;-73
2021/11/08 09:53:33;;;;;;;;;32.75;24.75;;;;;;;;5048146;28;45390;-74
2021/11/08 09:55:59;;;;;;;;;27.75;23.25;;;;;;;;5050520;28;45305;-73
2021/11/08 09:58:24;;;;;;;;;38.25;30.00;;;;;;;;5052862;28;45409;-75
2021/11/08 10:00:52;;;;;;;;;26.75;26.25;;;;;;;;5053947;28;45314;-73
2021/11/08 10:03:24;;;;;;;;;30.00;26.00;;;;;;;;5053613;28;45397;-73
2021/11/08 10:05:49;;;;;;;;;22.00;20.50;;;;;;;;5053232;28;45504;-73
2021/11/08 10:08:16;;;;;;;;;23.75;22.00;;;;;;;;5053607;28;45510;-74
2021/11/08 10:10:41;;;;;;;;;26.75;22.00;;;;;;;;5052047;28;46157;-73
2021/11/08 10:13:12;;;;;;;;;23.75;22.75;;;;;;;;5053460;28;45519;-72
2021/11/08 10:15:40;;;;;;;;;34.00;28.00;;;;;;;;5053547;28;45314;-73
2021/11/08 10:18:05;;;;;;;;;19.75;19.75;;;;;;;;5053594;28;45369;-72
2021/11/08 10:20:31;;;;;;;;;16.75;15.00;;;;;;;;5051816;28;46407;-73
2021/11/08 10:22:57;;;;;;;;;25.00;22.00;;;;;;;;5054521;28;45375;-75
2021/11/08 10:25:23;;;;;;;;;20.50;17.25;;;;;;;;5053729;28;45336;-75
2021/11/08 10:27:48;;;;;;;;;20.50;19.50;;;;;;;;5053758;28;45370;-73
2021/11/08 10:30:30;;;;;;;;;21.25;20.00;;;;;;;;5052386;28;46247;-73
2021/11/08 10:33:08;;;;;;;;;19.25;17.25;;;;;;;;5052581;28;45554;-73
2021/11/08 10:35:38;;;;;;;;;21.25;17.75;;;;;;;;5052952;28;45634;-73
2021/11/08 10:38:04;;;;;;;;;15.25;14.50;;;;;;;;5053520;28;45377;-74
2021/11/08 10:40:37;;;;;;;;;22.25;17.75;;;;;;;;5055746;28;45423;-73
2021/11/08 10:43:02;;;;;;;;;17.25;15.75;;;;;;;;5053585;28;45557;-73
2021/11/08 10:45:28;;;;;;;;;23.00;14.25;;;;;;;;5053122;28;45416;-73
2021/11/08 10:48:00;;;;;;;;;20.25;18.00;;;;;;;;5053315;28;45527;-74
2021/11/08 10:50:37;;;;;;;;;24.75;18.00;;;;;;;;5052884;28;46243;-73
2021/11/08 10:53:03;;;;;;;;;18.50;15.25;;;;;;;;5053259;28;45341;-72
2021/11/08 10:55:30;;;;;;;;;18.75;13.00;;;;;;;;5056360;28;45272;-73
2021/11/08 10:58:05;;;;;;;;;17.00;15.25;;;;;;;;5053238;28;45510;-74
2021/11/08 11:00:30;;;;;;;;;15.50;15.50;;;;;;;;5050909;28;45551;-72
2021/11/08 11:02:55;;;;;;;;;11.25;11.00;;;;;;;;5050978;28;45684;-73
2021/11/08 11:05:22;;;;;;;;;11.75;10.75;;;;;;;;5052774;28;45345;-73
2021/11/08 11:07:47;;;;;;;;;16.00;11.50;;;;;;;;5055970;28;45440;-73
2021/11/08 11:10:18;;;;;;;;;17.50;13.25;;;;;;;;5053007;28;47774;-73
2021/11/08 11:12:45;;;;;;;;;13.50;11.00;;;;;;;;5054243;28;45279;-74
2021/11/08 11:15:11;;;;;;;;;19.75;16.50;;;;;;;;5052962;28;45413;-72
2021/11/08 11:17:41;;;;;;;;;9.75;9.25;;;;;;;;5052688;28;45421;-72
2021/11/08 11:20:06;;;;;;;;;5.00;3.33;;;;;;;;5052737;28;45329;-73
2021/11/08 11:22:32;;;;;;;;;6.33;6.33;;;;;;;;5053380;28;45251;-73
2021/11/08 11:24:58;;;;;;;;;11.50;10.00;;;;;;;;5052810;28;45364;-74
2021/11/08 11:27:30;;;;;;;;;11.00;8.75;;;;;;;;5052556;28;45443;-74
2021/11/08 11:30:14;;;;;;;;;8.50;6.00;;;;;;;;5050678;28;46230;-74
2021/11/08 11:32:39;;;;;;;;;8.25;8.25;;;;;;;;5050067;28;45420;-74
2021/11/08 11:35:15;;;;;;;;;15.50;13.50;;;;;;;;5052462;28;45368;-74
2021/11/08 11:37:50;;;;;;;;;11.00;6.67;;;;;;;;5054700;28;45267;-74
2021/11/08 11:40:16;;;;;;;;;8.67;7.00;;;;;;;;5052392;28;46236;-73
2021/11/08 11:42:46;;;;;;;;;7.00;7.00;;;;;;;;5050929;28;45464;-74
2021/11/08 11:45:11;;;;;;;;;3.67;3.67;;;;;;;;5052724;28;45383;-73
2021/11/08 11:47:38;;;;;;;;;5.00;3.00;;;;;;;;5052211;28;46826;-74
2021/11/08 11:50:03;;;;;;;;;10.75;8.75;;;;;;;;5052478;28;46491;-74
2021/11/08 11:52:29;;;;;;;;;5.33;5.00;;;;;;;;5054293;28;45307;-74
2021/11/08 11:54:54;;;;;;;;;8.00;6.67;;;;;;;;5052368;28;45323;-74
2021/11/08 11:57:20;;;;;;;;;8.67;8.00;;;;;;;;5051337;28;45383;-74
2021/11/08 11:59:45;;;;;;;;;6.00;4.33;;;;;;;;5052967;28;46799;-74
2021/11/08 12:02:10;;;;;;;;;7.00;4.33;;;;;;;;5052408;28;45264;-74
2021/11/08 12:04:36;;;;;;;;;4.00;3.00;;;;;;;;5054110;28;45391;-74
2021/11/08 12:07:03;;;;;;;;;4.00;4.00;;;;;;;;5051992;28;45408;-73
2021/11/08 12:09:29;;;;;;;;;6.00;6.00;;;;;;;;5051888;28;46220;-73
2021/11/08 12:11:55;;;;;;;;;5.00;4.33;;;;;;;;5051137;28;45387;-73
2021/11/08 12:14:22;;;;;;;;;4.33;4.33;;;;;;;;5051911;28;45447;-73
2021/11/08 12:16:53;;;;;;;;;10.00;6.00;;;;;;;;5053389;28;45459;-73
2021/11/08 12:19:19;;;;;;;;;6.00;5.00;;;;;;;;5050472;28;46058;-74
2021/11/08 12:21:45;;;;;;;;;8.00;5.33;;;;;;;;5051888;28;45427;-74
2021/11/08 12:24:24;;;;;;;;;6.00;5.33;;;;;;;;5051500;28;45458;-74
2021/11/08 12:27:00;;;;;;;;;6.67;3.33;;;;;;;;5051830;28;45389;-73
2021/11/08 12:29:25;;;;;;;;;5.00;4.67;;;;;;;;5051476;28;47149;-73
2021/11/08 12:32:01;;;;;;;;;4.67;3.00;;;;;;;;5052781;28;45285;-74
2021/11/08 12:34:27;;;;;;;;;21.75;17.25;;;;;;;;5053472;28;45401;-73
2021/11/08 12:36:59;;;;;;;;;5.67;3.33;;;;;;;;5051800;28;45372;-73
2021/11/08 12:39:24;;;;;;;;;7.00;5.67;;;;;;;;5051462;28;47255;-73
2021/11/08 12:41:51;;;;;;;;;9.75;8.00;;;;;;;;5050720;28;45309;-73
2021/11/08 12:44:18;;;;;;;;;4.67;3.67;;;;;;;;5052083;28;45223;-74
2021/11/08 12:46:59;;;;;;;;;4.00;4.00;;;;;;;;5049249;28;45371;-74
2021/11/08 12:49:30;;;;;;;;;6.00;5.00;;;;;;;;5052758;28;46220;-75
2021/11/08 12:52:07;;;;;;;;;3.00;3.00;;;;;;;;5050053;28;45353;-73
2021/11/08 12:54:43;;;;;;;;;4.33;3.00;;;;;;;;5051489;28;45236;-74
2021/11/08 12:57:10;;;;;;;;;3.67;3.67;;;;;;;;5050543;28;45325;-73
2021/11/08 12:59:42;;;;;;;;;2.67;2.00;;;;;;;;5050202;28;46381;-74
2021/11/08 13:02:16;;;;;;;;;3.00;2.00;;;;;;;;5051193;28;45463;-73
2021/11/08 13:04:51;;;;;;;;;6.67;3.33;;;;;;;;5055422;28;45364;-73
2021/11/08 13:07:18;;;;;;;;;6.67;3.33;;;;;;;;5053394;28;45538;-74
2021/11/08 13:09:45;;;;;;;;;5.67;4.33;;;;;;;;5053169;28;47293;-73
2021/11/08 13:12:12;;;;;;;;;6.33;5.00;;;;;;;;5051816;28;45479;-73
2021/11/08 13:14:38;;;;;;;;;4.00;4.00;;;;;;;;5051302;28;45424;-72
2021/11/08 13:17:10;;;;;;;;;4.33;2.00;;;;;;;;5051920;28;45389;-72
2021/11/08 13:19:40;;;;;;;;;1.67;1.67;;;;;;;;5053850;28;46236;-74
2021/11/08 13:22:10;;;;;;;;;4.00;3.33;;;;;;;;5051374;28;45335;-73
2021/11/08 13:24:35;;;;;;;;;3.00;3.00;;;;;;;;5051142;28;45472;-74
2021/11/08 13:27:00;;;;;;;;;4.00;4.00;;;;;;;;5051518;28;45465;-74
2021/11/08 13:29:26;;;;;;;;;4.33;4.00;;;;;;;;5049184;28;46253;-74
2021/11/08 13:31:51;;;;;;;;;7.00;4.67;;;;;;;;5052532;28;45388;-73
2021/11/08 13:34:17;;;;;;;;;5.67;5.67;;;;;;;;5053716;28;45655;-73
2021/11/08 13:36:43;;;;;;;;;6.00;4.33;;;;;;;;5054758;28;45674;-73
2021/11/08 13:39:08;;;;;;;;;3.67;3.67;;;;;;;;5053560;28;46203;-73
2021/11/08 13:41:34;;;;;;;;;3.33;2.67;;;;;;;;5054902;28;45232;-74
2021/11/08 13:44:01;;;;;;;;;2.67;2.00;;;;;;;;5055282;28;45440;-72
2021/11/08 13:46:26;;;;;;;;;4.00;4.00;;;;;;;;5056974;28;45556;-73
2021/11/08 13:48:56;;;;;;;;;4.33;4.00;;;;;;;;5054231;28;45491;-73
2021/11/08 13:51:24;;;;;;;;;3.67;3.67;;;;;;;;5054288;28;45566;-72
2021/11/08 13:53:54;;;;;;;;;4.67;4.67;;;;;;;;5054140;28;45526;-74
2021/11/08 13:56:19;;;;;;;;;4.00;3.00;;;;;;;;5038953;28;45320;-73
2021/11/08 13:58:46;;;;;;;;;3.00;3.00;;;;;;;;5056337;28;46421;-73
2021/11/08 14:01:11;;;;;;;;;7.00;4.67;;;;;;;;5054574;28;45460;-73
2021/11/08 14:03:38;;;;;;;;;3.67;3.00;;;;;;;;5054404;28;45303;-73
2021/11/08 14:06:04;;;;;;;;;2.00;2.00;;;;;;;;5054887;28;45419;-73
2021/11/08 14:08:29;;;;;;;;;3.33;3.33;;;;;;;;5054007;28;45996;-72
2021/11/08 14:10:56;;;;;;;;;4.33;4.33;;;;;;;;5054866;28;45523;-73
2021/11/08 14:13:31;;;;;;;;;4.00;3.00;;;;;;;;5055277;28;45411;-73
2021/11/08 14:16:01;;;;;;;;;5.33;5.33;;;;;;;;5051806;28;45300;-73
2021/11/08 14:18:26;;;;;;;;;5.00;5.00;;;;;;;;5051800;28;45369;-74
2021/11/08 14:21:02;;;;;;;;;7.33;6.33;;;;;;;;5053414;28;45403;-73
2021/11/08 14:23:27;;;;;;;;;3.33;3.33;;;;;;;;5035232;28;45241;-73
2021/11/08 14:25:53;;;;;;;;;12.00;10.75;;;;;;;;5054891;28;45412;-75
2021/11/08 14:28:23;;;;;;;;;5.00;3.00;;;;;;;;5054249;28;46259;-73
2021/11/08 14:30:50;;;;;;;;;3.33;3.33;;;;;;;;5054221;28;45498;-72
2021/11/08 14:33:15;;;;;;;;;4.00;4.00;;;;;;;;5053741;28;45220;-74
2021/11/08 14:35:43;;;;;;;;;4.75;4.50;;;;;;;;5053786;28;45394;-73
2021/11/08 14:38:26;;;;;;;;;5.67;4.00;;;;;;;;5053909;28;45394;-73
2021/11/08 14:40:51;;;;;;;;;4.00;4.00;;;;;;;;5051946;28;45239;-72
2021/11/08 14:43:18;;;;;;;;;4.00;3.00;;;;;;;;5054359;28;45221;-73
2021/11/08 14:46:02;;;;;;;;;4.00;3.00;;;;;;;;5053117;28;45426;-74
2021/11/08 14:48:28;;;;;;;;;4.00;3.00;;;;;;;;5053458;28;46294;-73
2021/11/08 14:51:08;;;;;;;;;4.67;3.00;;;;;;;;5053040;28;45467;-72
2021/11/08 14:53:36;;;;;;;;;2.67;2.67;;;;;;;;5051782;28;45464;-74
2021/11/08 14:56:02;;;;;;;;;3.00;3.00;;;;;;;;5053318;28;45281;-73
2021/11/08 14:58:27;;;;;;;;;16.50;15.75;;;;;;;;5055538;28;46970;-73
2021/11/08 15:00:53;;;;;;;;;6.67;3.67;;;;;;;;5051923;28;45441;-74
2021/11/08 15:03:19;;;;;;;;;4.67;3.00;;;;;;;;5035999;28;45453;-73
2021/11/08 15:05:46;;;;;;;;;4.67;4.33;;;;;;;;5054753;28;45396;-73
2021/11/08 15:08:12;;;;;;;;;2.67;2.67;;;;;;;;5035988;28;46274;-71
2021/11/08 15:10:38;;;;;;;;;4.75;4.00;;;;;;;;5055192;28;45348;-74
2021/11/08 15:13:05;;;;;;;;;5.67;5.33;;;;;;;;5052729;28;45572;-74
2021/11/08 15:15:32;;;;;;;;;5.00;5.00;;;;;;;;5052900;28;45401;-74
2021/11/08 15:18:00;;;;;;;;;7.00;5.33;;;;;;;;5052601;28;46258;-73
2021/11/08 15:20:27;;;;;;;;;6.00;4.67;;;;;;;;5052729;28;45466;-73
2021/11/08 15:22:54;;;;;;;;;4.00;4.00;;;;;;;;5054105;28;45397;-74
2021/11/08 15:25:40;;;;;;;;;4.75;3.50;;;;;;;;5053591;28;45449;-73
2021/11/08 15:28:10;;;;;;;;;4.75;3.50;;;;;;;;5051431;28;45506;-74
2021/11/08 15:30:36;;;;;;;;;5.50;4.00;;;;;;;;5050700;28;45367;-73
2021/11/08 15:33:03;;;;;;;;;2.50;2.50;;;;;;;;5051281;28;49402;-74
2021/11/08 15:35:35;;;;;;;;;9.25;5.00;;;;;;;;5050893;28;45663;-73
2021/11/08 15:38:01;;;;;;;;;7.75;6.75;;;;;;;;5054504;28;45394;-74
2021/11/08 15:40:26;;;;;;;;;8.50;6.75;;;;;;;;5052261;28;45433;-74
2021/11/08 15:42:51;;;;;;;;;5.00;5.00;;;;;;;;5051908;28;45402;-73
2021/11/08 15:45:16;;;;;;;;;6.00;5.25;;;;;;;;5052247;28;45425;-74
2021/11/08 15:47:41;;;;;;;;;6.00;4.75;;;;;;;;5052358;28;47221;-73
2021/11/08 15:50:07;;;;;;;;;7.00;7.00;;;;;;;;5052465;28;45311;-74
2021/11/08 15:52:33;;;;;;;;;10.00;6.50;;;;;;;;5054507;28;45329;-74
2021/11/08 15:54:58;;;;;;;;;7.00;7.00;;;;;;;;5051562;28;45453;-73
2021/11/08 15:57:24;;;;;;;;;8.75;6.00;;;;;;;;5051212;28;45419;-74
2021/11/08 15:59:52;;;;;;;;;11.25;8.50;;;;;;;;5051497;28;45368;-73
2021/11/08 16:02:18;;;;;;;;;7.00;5.00;;;;;;;;5035794;28;45360;-73
2021/11/08 16:04:44;;;;;;;;;5.00;4.50;;;;;;;;5049048;28;45236;-74
2021/11/08 16:07:09;;;;;;;;;9.25;9.00;;;;;;;;5051087;28;45498;-74
2021/11/08 16:09:34;;;;;;;;;9.00;7.50;;;;;;;;5050885;28;45480;-72